createdAt,value
2022-11-24T00:00:18.802Z,85.08
2022-11-24T00:01:18.774Z,85.94
2022-11-24T00:02:18.910Z,85.63
2022-11-24T00:03:19.359Z,85.33
2022-11-24T00:04:18.729Z,84.63
2022-11-24T00:05:18.863Z,84.33
2022-11-24T00:06:18.843Z,85.24
2022-11-24T00:07:19.739Z,84.33
2022-11-24T00:08:18.760Z,84.74
2022-11-24T00:09:18.682Z,84.13
2022-11-24T00:10:18.821Z,84.33
2022-11-24T00:11:18.778Z,83.93
2022-11-24T00:12:18.709Z,84.67
2022-11-24T00:13:18.733Z,85.33
2022-11-24T00:14:18.726Z,84.74
2022-11-24T00:15:18.632Z,84.23
2022-11-24T00:16:18.708Z,84.43
2022-11-24T00:17:18.714Z,84.13
2022-11-24T00:18:18.562Z,83.43
2022-11-24T00:19:19.874Z,84.43
2022-11-24T00:20:18.533Z,83.43
2022-11-24T00:21:18.530Z,82.12
2022-11-24T00:22:18.549Z,82.03
2022-11-24T00:23:18.593Z,82.63
2022-11-24T00:24:18.557Z,82.32
2022-11-24T00:25:18.663Z,82.73
2022-11-24T00:26:18.467Z,82.63
2022-11-24T00:27:18.519Z,82.57
2022-11-24T00:28:18.516Z,82.97
2022-11-24T00:29:18.518Z,82.67
2022-11-24T00:30:18.493Z,82.67
2022-11-24T00:31:18.683Z,82.97
2022-11-24T00:32:18.410Z,83.77
2022-11-24T00:33:18.414Z,81.56
2022-11-24T00:34:18.427Z,81.76
2022-11-24T00:35:18.485Z,82.46
2022-11-24T00:36:18.682Z,83.27
2022-11-24T00:37:18.448Z,83.47
2022-11-24T00:38:18.357Z,82.37
2022-11-24T00:39:18.355Z,83.37
2022-11-24T00:40:18.353Z,83.37
2022-11-24T00:41:18.567Z,81.56
2022-11-24T00:42:18.417Z,82.20
2022-11-24T00:43:18.318Z,82.46
2022-11-24T00:44:18.805Z,82.87
2022-11-24T00:45:18.329Z,82.06
2022-11-24T00:46:18.390Z,80.16
2022-11-24T00:47:18.546Z,80.06
2022-11-24T00:48:18.355Z,80.50
2022-11-24T00:49:18.255Z,81.50
2022-11-24T00:50:18.362Z,81.00
2022-11-24T00:51:18.164Z,81.00
2022-11-24T00:52:18.171Z,81.30
2022-11-24T00:53:18.493Z,80.80
2022-11-24T00:54:18.188Z,81.80
2022-11-24T00:55:18.195Z,81.20
2022-11-24T00:56:18.241Z,80.90
2022-11-24T00:57:18.108Z,81.70
2022-11-24T00:58:18.216Z,80.94
2022-11-24T00:59:18.481Z,80.54
2022-11-24T01:00:18.137Z,80.24
2022-11-24T01:01:18.152Z,79.83
2022-11-24T01:02:18.167Z,79.63
2022-11-24T01:03:18.038Z,81.94
2022-11-24T01:04:18.053Z,80.43
2022-11-24T01:05:18.673Z,80.24
2022-11-24T01:06:18.115Z,79.43
2022-11-24T01:07:18.090Z,79.03
2022-11-24T01:08:18.089Z,80.13
2022-11-24T01:09:18.095Z,80.13
2022-11-24T01:10:17.989Z,79.63
2022-11-24T01:11:17.996Z,80.74
2022-11-24T01:12:18.050Z,79.73
2022-11-24T01:13:18.012Z,79.73
2022-11-24T01:14:18.014Z,79.43
2022-11-24T01:15:17.919Z,78.93
2022-11-24T01:16:18.030Z,80.83
2022-11-24T01:17:17.984Z,81.44
2022-11-24T01:18:17.944Z,79.83
2022-11-24T01:19:17.968Z,82.34
2022-11-24T01:20:17.872Z,81.74
2022-11-24T01:21:17.863Z,80.88
2022-11-24T01:22:17.887Z,81.14
2022-11-24T01:23:17.922Z,80.63
2022-11-24T01:24:18.023Z,80.47
2022-11-24T01:25:17.902Z,81.18
2022-11-24T01:26:17.835Z,80.27
2022-11-24T01:27:17.819Z,80.68
2022-11-24T01:28:17.873Z,80.37
2022-11-24T01:29:17.861Z,80.37
2022-11-24T01:30:17.843Z,80.27
2022-11-24T01:31:17.901Z,80.77
2022-11-24T01:32:18.388Z,81.58
2022-11-24T01:33:17.742Z,80.68
2022-11-24T01:34:17.752Z,81.34
2022-11-24T01:35:17.760Z,81.54
2022-11-24T01:36:18.013Z,82.24
2022-11-24T01:37:17.737Z,81.04
2022-11-24T01:38:17.673Z,81.48
2022-11-24T01:39:17.718Z,79.47
2022-11-24T01:40:17.738Z,79.06
2022-11-24T01:41:17.665Z,80.57
2022-11-24T01:42:17.710Z,79.97
2022-11-24T01:43:17.727Z,80.24
2022-11-24T01:44:17.616Z,80.94
2022-11-24T01:45:17.732Z,78.77
2022-11-24T01:46:17.703Z,79.06
2022-11-24T01:47:17.694Z,81.48
2022-11-24T01:48:17.642Z,82.58
2022-11-24T01:49:17.546Z,80.98
2022-11-24T01:50:17.613Z,80.27
2022-11-24T01:51:17.617Z,80.98
2022-11-24T01:52:17.541Z,82.08
2022-11-24T01:53:17.608Z,83.12
2022-11-24T01:54:17.559Z,83.43
2022-11-24T01:55:17.526Z,83.63
2022-11-24T01:56:17.553Z,82.42
2022-11-24T01:57:17.442Z,81.52
2022-11-24T01:58:17.440Z,81.32
2022-11-24T01:59:17.454Z,82.82
2022-11-24T02:00:17.451Z,81.01
2022-11-24T02:01:17.538Z,80.65
2022-11-24T02:02:17.548Z,81.96
2022-11-24T02:03:17.492Z,82.06
2022-11-24T02:04:17.388Z,83.20
2022-11-24T02:05:17.405Z,82.80
2022-11-24T02:06:17.394Z,82.60
2022-11-24T02:07:17.517Z,83.45
2022-11-24T02:08:17.425Z,83.54
2022-11-24T02:09:17.332Z,82.84
2022-11-24T02:10:17.325Z,83.65
2022-11-24T02:11:17.325Z,84.29
2022-11-24T02:12:17.570Z,83.08
2022-11-24T02:13:17.342Z,84.19
2022-11-24T02:14:17.352Z,84.33
2022-11-24T02:15:17.356Z,84.53
2022-11-24T02:16:18.373Z,85.24
2022-11-24T02:17:17.249Z,84.59
2022-11-24T02:18:17.278Z,85.30
2022-11-24T02:19:17.278Z,84.19
2022-11-24T02:20:17.273Z,83.99
2022-11-24T02:21:17.281Z,84.39
2022-11-24T02:22:17.183Z,84.29
2022-11-24T02:23:17.189Z,84.49
2022-11-24T02:24:17.509Z,84.19
2022-11-24T02:25:17.221Z,85.20
2022-11-24T02:26:17.220Z,84.39
2022-11-24T02:27:17.116Z,84.59
2022-11-24T02:28:17.146Z,84.69
2022-11-24T02:29:17.089Z,82.98
2022-11-24T02:30:17.652Z,83.89
2022-11-24T02:31:17.263Z,83.79
2022-11-24T02:32:17.260Z,84.29
2022-11-24T02:33:17.118Z,84.49
2022-11-24T02:34:17.018Z,84.63
2022-11-24T02:35:17.029Z,85.34
2022-11-24T02:36:17.548Z,85.34
2022-11-24T02:37:17.361Z,85.24
2022-11-24T02:38:17.051Z,84.63
2022-11-24T02:39:16.999Z,85.03
2022-11-24T02:40:17.002Z,84.53
2022-11-24T02:41:16.965Z,84.63
2022-11-24T02:42:16.971Z,84.94
2022-11-24T02:43:16.980Z,83.69
2022-11-24T02:44:16.959Z,84.89
2022-11-24T02:45:16.883Z,85.00
2022-11-24T02:46:16.996Z,83.69
2022-11-24T02:47:16.917Z,82.28
2022-11-24T02:48:16.907Z,82.58
2022-11-24T02:49:16.883Z,82.84
2022-11-24T02:50:16.930Z,82.24
2022-11-24T02:51:16.823Z,82.44
2022-11-24T02:52:16.937Z,83.54
2022-11-24T02:53:16.992Z,84.21
2022-11-24T02:54:16.846Z,84.21
2022-11-24T02:55:16.820Z,80.89
2022-11-24T02:56:16.970Z,83.00
2022-11-24T02:57:16.762Z,83.51
2022-11-24T02:58:16.764Z,83.61
2022-11-24T02:59:16.829Z,83.47
2022-11-24T03:00:16.790Z,83.67
2022-11-24T03:01:16.843Z,84.47
2022-11-24T03:02:17.465Z,84.27
2022-11-24T03:03:16.815Z,83.47
2022-11-24T03:04:16.710Z,83.47
2022-11-24T03:05:16.761Z,83.06
2022-11-24T03:06:16.719Z,82.76
2022-11-24T03:07:16.725Z,82.76
2022-11-24T03:08:16.734Z,82.16
2022-11-24T03:09:16.635Z,81.52
2022-11-24T03:10:16.648Z,80.01
2022-11-24T03:11:16.649Z,79.91
2022-11-24T03:12:16.716Z,80.31
2022-11-24T03:13:16.664Z,80.61
2022-11-24T03:14:16.617Z,80.31
2022-11-24T03:15:16.572Z,78.80
2022-11-24T03:16:16.597Z,79.50
2022-11-24T03:17:16.582Z,78.60
2022-11-24T03:18:16.698Z,78.20
2022-11-24T03:19:16.613Z,78.70
2022-11-24T03:20:16.604Z,79.00
2022-11-24T03:21:16.515Z,78.60
2022-11-24T03:22:16.511Z,77.80
2022-11-24T03:23:16.519Z,78.50
2022-11-24T03:24:16.583Z,78.70
2022-11-24T03:25:17.039Z,79.64
2022-11-24T03:26:16.488Z,78.90
2022-11-24T03:27:16.442Z,78.23
2022-11-24T03:28:16.520Z,78.30
2022-11-24T03:29:16.614Z,78.70
2022-11-24T03:30:16.531Z,78.60
2022-11-24T03:31:16.558Z,78.40
2022-11-24T03:32:16.430Z,78.50
2022-11-24T03:33:16.447Z,79.41
2022-11-24T03:34:16.448Z,78.94
2022-11-24T03:35:16.469Z,78.84
2022-11-24T03:36:16.471Z,79.24
2022-11-24T03:37:16.472Z,79.85
2022-11-24T03:38:16.365Z,79.58
2022-11-24T03:39:16.456Z,79.68
2022-11-24T03:40:16.322Z,80.19
2022-11-24T03:41:16.390Z,80.29
2022-11-24T03:42:16.373Z,80.19
2022-11-24T03:43:16.486Z,80.52
2022-11-24T03:44:16.314Z,80.83
2022-11-24T03:45:44.212Z,81.03
2022-11-24T03:46:16.344Z,80.93
2022-11-24T03:47:16.328Z,80.83
2022-11-24T03:48:16.338Z,81.39
2022-11-24T03:49:16.350Z,82.30
2022-11-24T03:50:16.221Z,80.89
2022-11-24T03:51:16.229Z,80.49
2022-11-24T03:52:16.365Z,80.65
2022-11-24T03:53:16.242Z,80.25
2022-11-24T03:54:16.348Z,80.65
2022-11-24T03:55:16.248Z,80.25
2022-11-24T03:56:16.193Z,80.95
2022-11-24T03:57:16.170Z,81.12
2022-11-24T03:58:16.230Z,80.81
2022-11-24T03:59:16.185Z,80.61
2022-11-24T04:00:16.288Z,80.61
2022-11-24T04:01:16.352Z,80.31
2022-11-24T04:02:16.249Z,80.01
2022-11-24T04:03:16.110Z,80.81
2022-11-24T04:04:16.120Z,79.81
2022-11-24T04:05:16.173Z,80.01
2022-11-24T04:06:16.133Z,80.11
2022-11-24T04:07:16.178Z,79.61
2022-11-24T04:08:16.150Z,79.50
2022-11-24T04:09:16.202Z,79.67
2022-11-24T04:10:16.161Z,79.37
2022-11-24T04:11:16.070Z,79.47
2022-11-24T04:12:16.120Z,78.06
2022-11-24T04:13:15.972Z,77.56
2022-11-24T04:14:15.973Z,78.46
2022-11-24T04:15:15.983Z,78.56
2022-11-24T04:16:16.144Z,77.96
2022-11-24T04:17:16.099Z,78.46
2022-11-24T04:18:16.004Z,77.56
2022-11-24T04:19:15.959Z,77.26
2022-11-24T04:20:16.084Z,77.36
2022-11-24T04:21:15.871Z,77.86
2022-11-24T04:22:15.981Z,78.77
2022-11-24T04:23:16.043Z,78.16
2022-11-24T04:24:15.955Z,78.16
2022-11-24T04:25:15.999Z,78.16
2022-11-24T04:26:15.879Z,78.36
2022-11-24T04:27:15.977Z,78.06
2022-11-24T04:28:15.878Z,77.76
2022-11-24T04:29:15.880Z,77.56
2022-11-24T04:30:16.204Z,77.56
2022-11-24T04:31:16.055Z,77.86
2022-11-24T04:32:15.810Z,77.56
2022-11-24T04:33:15.814Z,77.46
2022-11-24T04:34:15.822Z,77.46
2022-11-24T04:35:15.766Z,77.56
2022-11-24T04:36:15.835Z,78.56
2022-11-24T04:37:15.883Z,78.36
2022-11-24T04:39:24.749Z,78.16
2022-11-24T04:39:31.515Z,78.36
2022-11-24T04:40:15.698Z,79.47
2022-11-24T04:41:15.741Z,78.46
2022-11-24T04:42:15.813Z,78.86
2022-11-24T04:43:15.762Z,78.77
2022-11-24T04:44:15.757Z,78.77
2022-11-24T04:45:15.628Z,78.06
2022-11-24T04:46:15.822Z,79.57
2022-11-24T04:47:15.751Z,79.27
2022-11-24T04:48:15.681Z,79.50
2022-11-24T04:49:15.687Z,79.27
2022-11-24T04:50:15.589Z,79.37
2022-11-24T04:51:15.621Z,79.47
2022-11-24T04:52:15.618Z,80.17
2022-11-24T04:53:15.743Z,79.57
2022-11-24T04:54:15.645Z,79.37
2022-11-24T04:55:15.901Z,79.00
2022-11-24T04:56:15.626Z,78.60
2022-11-24T04:57:15.564Z,78.70
2022-11-24T04:58:15.619Z,79.00
2022-11-24T04:59:15.652Z,79.30
2022-11-24T05:00:15.521Z,79.91
2022-11-24T05:01:15.592Z,78.90
2022-11-24T05:02:15.496Z,78.80
2022-11-24T05:03:15.497Z,79.97
2022-11-24T05:04:15.650Z,79.06
2022-11-24T05:05:15.510Z,79.17
2022-11-24T05:06:15.525Z,79.77
2022-11-24T05:07:18.649Z,79.27
2022-11-24T05:08:15.373Z,77.20
2022-11-24T05:09:15.385Z,78.40
2022-11-24T05:10:15.396Z,78.90
2022-11-24T05:11:16.115Z,78.80
2022-11-24T05:12:15.741Z,79.00
2022-11-24T05:13:15.405Z,78.50
2022-11-24T05:14:15.314Z,79.10
2022-11-24T05:15:15.321Z,79.50
2022-11-24T05:16:15.457Z,79.61
2022-11-24T05:17:15.292Z,79.61
2022-11-24T05:18:15.339Z,79.50
2022-11-24T05:19:15.344Z,79.50
2022-11-24T05:20:15.247Z,79.41
2022-11-24T05:21:15.307Z,79.30
2022-11-24T05:22:15.267Z,79.00
2022-11-24T05:23:15.272Z,78.90
2022-11-24T05:24:15.330Z,78.70
2022-11-24T05:25:15.197Z,78.60
2022-11-24T05:26:15.190Z,77.94
2022-11-24T05:27:15.327Z,78.44
2022-11-24T05:28:15.245Z,79.35
2022-11-24T05:29:15.233Z,80.81
2022-11-24T05:30:15.176Z,80.71
2022-11-24T05:31:15.133Z,80.75
2022-11-24T05:32:15.159Z,80.35
2022-11-24T05:33:15.168Z,80.25
2022-11-24T05:34:15.161Z,80.75
2022-11-24T05:35:15.173Z,79.94
2022-11-24T05:36:15.174Z,79.35
2022-11-24T05:37:15.093Z,79.14
2022-11-24T05:38:15.040Z,79.35
2022-11-24T05:39:15.048Z,79.81
2022-11-24T05:40:15.218Z,79.41
2022-11-24T05:41:15.061Z,79.30
2022-11-24T05:42:15.090Z,78.50
2022-11-24T05:43:14.970Z,78.80
2022-11-24T05:44:14.977Z,78.80
2022-11-24T05:45:14.987Z,78.80
2022-11-24T05:46:15.028Z,78.10
2022-11-24T05:47:14.947Z,77.90
2022-11-24T05:48:15.055Z,79.21
2022-11-24T05:49:14.906Z,79.50
2022-11-24T05:50:14.916Z,79.61
2022-11-24T05:51:14.920Z,79.81
2022-11-24T05:52:14.945Z,80.11
2022-11-24T05:53:14.889Z,80.61
2022-11-24T05:54:14.889Z,80.71
2022-11-24T05:55:14.880Z,80.61
2022-11-24T05:56:15.054Z,80.41
2022-11-24T05:57:14.961Z,80.01
2022-11-24T05:58:14.812Z,79.81
2022-11-24T05:59:14.874Z,79.81
2022-11-24T06:00:14.880Z,79.00
2022-11-24T06:01:14.807Z,78.70
2022-11-24T06:02:14.981Z,79.21
2022-11-24T06:03:14.971Z,79.81
2022-11-24T06:04:14.800Z,78.90
2022-11-24T06:05:14.870Z,79.30
2022-11-24T06:06:14.826Z,79.91
2022-11-24T06:07:14.817Z,80.41
2022-11-24T06:08:14.785Z,81.01
2022-11-24T06:09:14.795Z,81.21
2022-11-24T06:10:14.739Z,81.12
2022-11-24T06:11:14.701Z,81.21
2022-11-24T06:12:15.025Z,79.71
2022-11-24T06:13:14.782Z,79.71
2022-11-24T06:14:14.766Z,80.81
2022-11-24T06:15:14.763Z,81.41
2022-11-24T06:16:14.848Z,81.82
2022-11-24T06:17:14.696Z,82.22
2022-11-24T06:18:14.684Z,82.22
2022-11-24T06:19:14.664Z,82.32
2022-11-24T06:20:14.670Z,82.62
2022-11-24T06:21:14.601Z,82.52
2022-11-24T06:22:14.629Z,82.42
2022-11-24T06:23:14.618Z,82.82
2022-11-24T06:24:14.686Z,82.42
2022-11-24T06:25:14.595Z,82.42
2022-11-24T06:26:14.642Z,82.42
2022-11-24T06:27:14.565Z,82.32
2022-11-24T06:28:14.614Z,82.22
2022-11-24T06:29:14.620Z,82.12
2022-11-24T06:30:14.522Z,82.32
2022-11-24T06:31:14.610Z,82.42
2022-11-24T06:32:14.545Z,82.22
2022-11-24T06:33:14.483Z,82.16
2022-11-24T06:34:14.597Z,82.26
2022-11-24T06:35:14.555Z,82.56
2022-11-24T06:36:14.460Z,82.56
2022-11-24T06:37:14.511Z,82.86
2022-11-24T06:38:14.482Z,82.56
2022-11-24T06:39:14.421Z,82.56
2022-11-24T06:40:14.388Z,82.26
2022-11-24T06:41:14.387Z,82.36
2022-11-24T06:42:14.433Z,82.26
2022-11-24T06:43:14.643Z,82.97
2022-11-24T06:44:14.413Z,82.97
2022-11-24T06:45:14.321Z,82.86
2022-11-24T06:46:14.387Z,83.06
2022-11-24T06:47:14.325Z,82.97
2022-11-24T06:48:14.339Z,82.66
2022-11-24T06:49:14.380Z,83.06
2022-11-24T06:50:14.246Z,82.56
2022-11-24T06:51:14.257Z,82.16
2022-11-24T06:52:14.291Z,81.96
2022-11-24T06:53:14.368Z,82.86
2022-11-24T06:54:14.269Z,82.66
2022-11-24T06:55:14.277Z,82.36
2022-11-24T06:56:16.767Z,82.76
2022-11-24T06:57:14.233Z,82.86
2022-11-24T06:58:14.205Z,82.66
2022-11-24T06:59:14.206Z,82.76
2022-11-24T07:00:14.205Z,82.16
2022-11-24T07:01:14.187Z,82.06
2022-11-24T07:02:14.147Z,81.85
2022-11-24T07:03:14.178Z,81.65
2022-11-24T07:04:14.134Z,81.79
2022-11-24T07:05:14.145Z,82.10
2022-11-24T07:06:14.145Z,83.40
2022-11-24T07:07:14.218Z,83.26
2022-11-24T07:08:17.798Z,83.06
2022-11-24T07:09:14.099Z,83.06
2022-11-24T07:10:14.051Z,82.76
2022-11-24T07:11:14.113Z,82.66
2022-11-24T07:12:14.117Z,82.36
2022-11-24T07:13:14.172Z,82.56
2022-11-24T07:14:14.000Z,81.96
2022-11-24T07:15:13.984Z,82.36
2022-11-24T07:16:14.064Z,82.46
2022-11-24T07:17:14.164Z,82.56
2022-11-24T07:18:14.004Z,83.17
2022-11-24T07:19:14.013Z,83.31
2022-11-24T07:20:14.056Z,83.71
2022-11-24T07:21:14.026Z,83.61
2022-11-24T07:22:14.036Z,83.71
2022-11-24T07:23:14.041Z,83.40
2022-11-24T07:24:13.994Z,82.80
2022-11-24T07:25:13.992Z,82.60
2022-11-24T07:26:13.995Z,82.90
2022-11-24T07:27:14.007Z,82.97
2022-11-24T07:28:13.867Z,83.26
2022-11-24T07:29:13.874Z,82.86
2022-11-24T07:30:13.877Z,82.86
2022-11-24T07:31:13.956Z,82.86
2022-11-24T07:32:13.886Z,82.46
2022-11-24T07:33:13.897Z,82.66
2022-11-24T07:34:13.859Z,82.66
2022-11-24T07:35:13.856Z,82.66
2022-11-24T07:36:13.861Z,82.76
2022-11-24T07:37:13.881Z,82.86
2022-11-24T07:38:13.823Z,82.66
2022-11-24T07:39:13.784Z,82.66
2022-11-24T07:40:13.745Z,83.17
2022-11-24T07:41:14.370Z,82.86
2022-11-24T07:42:13.754Z,82.97
2022-11-24T07:43:19.820Z,82.97
2022-11-24T07:44:13.769Z,82.97
2022-11-24T07:45:13.777Z,82.66
2022-11-24T07:46:13.897Z,82.86
2022-11-24T07:47:13.694Z,82.97
2022-11-24T07:48:13.743Z,83.06
2022-11-24T07:49:13.758Z,82.86
2022-11-24T07:50:13.760Z,82.36
2022-11-24T07:51:13.674Z,82.16
2022-11-24T07:52:13.664Z,82.46
2022-11-24T07:53:13.621Z,82.46
2022-11-24T07:54:13.741Z,82.56
2022-11-24T07:55:13.691Z,82.56
2022-11-24T07:56:13.645Z,82.56
2022-11-24T07:57:13.656Z,82.36
2022-11-24T07:58:13.605Z,82.46
2022-11-24T07:59:13.560Z,82.97
2022-11-24T08:00:13.618Z,82.56
2022-11-24T08:01:13.666Z,82.06
2022-11-24T08:02:13.537Z,81.76
2022-11-24T08:03:13.555Z,82.06
2022-11-24T08:04:13.575Z,82.36
2022-11-24T08:05:14.162Z,81.96
2022-11-24T08:06:24.999Z,81.35
2022-11-24T08:07:13.632Z,81.35
2022-11-24T08:08:13.546Z,81.35
2022-11-24T08:09:13.431Z,81.26
2022-11-24T08:10:13.376Z,81.35
2022-11-24T08:11:13.435Z,81.05
2022-11-24T08:12:13.548Z,81.76
2022-11-24T08:13:13.346Z,81.85
2022-11-24T08:14:13.356Z,81.85
2022-11-24T08:15:13.359Z,81.56
2022-11-24T08:16:13.585Z,81.76
2022-11-24T08:17:13.473Z,81.85
2022-11-24T08:18:13.429Z,81.96
2022-11-24T08:19:13.285Z,81.76
2022-11-24T08:20:13.282Z,81.76
2022-11-24T08:21:13.303Z,81.46
2022-11-24T08:22:13.253Z,81.70
2022-11-24T08:23:13.308Z,81.90
2022-11-24T08:24:13.324Z,82.20
2022-11-24T08:25:13.248Z,82.30
2022-11-24T08:26:13.228Z,82.40
2022-11-24T08:27:13.257Z,82.50
2022-11-24T08:28:13.292Z,82.40
2022-11-24T08:29:13.199Z,82.20
2022-11-24T08:30:13.278Z,82.20
2022-11-24T08:31:13.207Z,81.99
2022-11-24T08:32:17.418Z,81.96
2022-11-24T08:33:13.200Z,81.85
2022-11-24T08:34:13.239Z,81.85
2022-11-24T08:35:14.245Z,82.06
2022-11-24T08:36:13.226Z,81.65
2022-11-24T08:37:13.149Z,81.46
2022-11-24T08:38:13.106Z,81.65
2022-11-24T08:39:13.147Z,81.76
2022-11-24T08:40:13.083Z,81.85
2022-11-24T08:41:13.899Z,81.96
2022-11-24T08:42:13.091Z,81.85
2022-11-24T08:43:13.034Z,81.96
2022-11-24T08:44:13.010Z,82.36
2022-11-24T08:45:21.025Z,81.85
2022-11-24T08:46:13.288Z,81.85
2022-11-24T08:47:13.060Z,81.96
2022-11-24T08:48:13.142Z,81.76
2022-11-24T08:49:13.102Z,81.76
2022-11-24T08:50:12.981Z,81.65
2022-11-24T08:51:12.943Z,81.85
2022-11-24T08:52:12.958Z,81.76
2022-11-24T08:53:12.929Z,81.65
2022-11-24T08:54:13.102Z,81.26
2022-11-24T08:55:12.872Z,81.56
2022-11-24T08:56:12.953Z,81.82
2022-11-24T08:57:17.204Z,81.72
2022-11-24T08:58:12.928Z,81.82
2022-11-24T08:59:13.112Z,81.72
2022-11-24T09:00:12.866Z,81.82
2022-11-24T09:01:12.885Z,81.62
2022-11-24T09:02:12.815Z,82.32
2022-11-24T09:03:12.800Z,82.42
2022-11-24T09:04:13.015Z,82.32
2022-11-24T09:05:43.233Z,82.22
2022-11-24T09:06:12.873Z,81.92
2022-11-24T09:07:12.827Z,81.32
2022-11-24T09:08:12.789Z,81.32
2022-11-24T09:09:12.778Z,81.72
2022-11-24T09:10:12.768Z,81.72
2022-11-24T09:11:12.749Z,82.12
2022-11-24T09:12:14.624Z,81.82
2022-11-24T09:13:12.737Z,81.92
2022-11-24T09:14:12.749Z,82.02
2022-11-24T09:15:12.835Z,81.62
2022-11-24T09:16:12.965Z,81.41
2022-11-24T09:17:12.897Z,81.21
2022-11-24T09:18:12.778Z,81.82
2022-11-24T09:19:12.682Z,81.32
2022-11-24T09:20:12.664Z,80.61
2022-11-24T09:21:12.695Z,80.51
2022-11-24T09:22:12.703Z,80.81
2022-11-24T09:23:12.711Z,81.01
2022-11-24T09:24:12.714Z,79.91
2022-11-24T09:25:12.626Z,80.11
2022-11-24T09:26:12.597Z,80.41
2022-11-24T09:27:12.735Z,81.21
2022-11-24T09:28:12.649Z,80.77
2022-11-24T09:29:12.660Z,81.18
2022-11-24T09:30:12.519Z,81.58
2022-11-24T09:31:12.614Z,80.88
2022-11-24T09:32:12.540Z,80.98
2022-11-24T09:33:12.534Z,80.37
2022-11-24T09:34:12.573Z,79.47
2022-11-24T09:35:12.769Z,79.57
2022-11-24T09:36:12.488Z,79.41
2022-11-24T09:37:12.473Z,79.71
2022-11-24T09:38:12.471Z,79.71
2022-11-24T09:39:13.332Z,79.41
2022-11-24T09:40:12.629Z,79.61
2022-11-24T09:41:12.527Z,79.77
2022-11-24T09:42:12.529Z,79.97
2022-11-24T09:43:12.535Z,80.07
2022-11-24T09:44:12.546Z,80.47
2022-11-24T09:45:13.387Z,80.37
2022-11-24T09:46:12.624Z,80.33
2022-11-24T09:47:12.485Z,80.54
2022-11-24T09:48:12.882Z,80.43
2022-11-24T09:49:12.384Z,80.63
2022-11-24T09:50:13.207Z,80.13
2022-11-24T09:51:12.401Z,78.93
2022-11-24T09:52:12.403Z,78.73
2022-11-24T09:53:12.411Z,78.89
2022-11-24T09:54:12.303Z,78.59
2022-11-24T09:55:12.313Z,78.59
2022-11-24T09:56:12.295Z,78.69
2022-11-24T09:57:12.351Z,78.29
2022-11-24T09:58:12.225Z,78.49
2022-11-24T09:59:12.275Z,78.09
2022-11-24T10:00:12.244Z,76.89
2022-11-24T10:01:12.304Z,77.59
2022-11-24T10:02:12.228Z,77.75
2022-11-24T10:03:13.180Z,77.65
2022-11-24T10:04:12.194Z,78.15
2022-11-24T10:05:12.238Z,79.36
2022-11-24T10:06:12.191Z,79.05
2022-11-24T10:07:12.270Z,78.55
2022-11-24T10:08:12.197Z,78.45
2022-11-24T10:09:12.195Z,78.05
2022-11-24T10:10:12.104Z,75.54
2022-11-24T10:11:12.087Z,74.54
2022-11-24T10:12:12.115Z,74.24
2022-11-24T10:13:12.125Z,74.84
2022-11-24T10:14:12.114Z,74.64
2022-11-24T10:15:12.075Z,75.14
2022-11-24T10:16:12.110Z,75.24
2022-11-24T10:17:12.035Z,76.21
2022-11-24T10:18:16.823Z,76.85
2022-11-24T10:19:12.064Z,77.21
2022-11-24T10:20:12.081Z,76.51
2022-11-24T10:21:12.073Z,75.74
2022-11-24T10:22:11.954Z,73.84
2022-11-24T10:23:11.995Z,74.64
2022-11-24T10:24:11.999Z,75.24
2022-11-24T10:25:12.009Z,74.74
2022-11-24T10:26:12.011Z,74.51
2022-11-24T10:27:12.141Z,75.10
2022-11-24T10:28:12.031Z,76.11
2022-11-24T10:29:11.934Z,72.00
2022-11-24T10:30:11.938Z,71.59
2022-11-24T10:31:11.995Z,72.70
2022-11-24T10:32:11.959Z,72.30
2022-11-24T10:33:11.863Z,72.70
2022-11-24T10:34:12.065Z,72.66
2022-11-24T10:35:11.868Z,72.86
2022-11-24T10:36:12.210Z,71.96
2022-11-24T10:37:11.891Z,71.73
2022-11-24T10:38:12.704Z,72.73
2022-11-24T10:39:12.922Z,72.83
2022-11-24T10:40:32.931Z,73.00
2022-11-24T10:41:11.910Z,72.09
2022-11-24T10:42:12.221Z,72.09
2022-11-24T10:43:11.835Z,71.09
2022-11-24T10:44:12.860Z,71.66
2022-11-24T10:45:12.570Z,72.56
2022-11-24T10:46:11.892Z,71.56
2022-11-24T10:47:11.749Z,72.46
2022-11-24T10:48:11.973Z,71.66
2022-11-24T10:49:13.091Z,72.26
2022-11-24T10:50:11.777Z,72.56
2022-11-24T10:51:12.400Z,72.53
2022-11-24T10:52:11.679Z,71.42
2022-11-24T10:53:11.687Z,70.83
2022-11-24T10:54:12.943Z,70.32
2022-11-24T10:55:11.893Z,69.73
2022-11-24T10:56:11.733Z,69.89
2022-11-24T10:57:11.896Z,68.59
2022-11-24T10:58:12.535Z,68.89
2022-11-24T10:59:11.626Z,70.59
2022-11-24T11:00:11.729Z,69.89
2022-11-24T11:01:11.865Z,68.36
2022-11-24T11:02:11.630Z,69.36
2022-11-24T11:03:11.793Z,68.66
2022-11-24T11:04:11.665Z,67.26
2022-11-24T11:05:11.555Z,68.52
2022-11-24T11:06:11.773Z,67.23
2022-11-24T11:07:11.693Z,67.23
2022-11-24T11:08:11.588Z,66.23
2022-11-24T11:09:11.585Z,66.23
2022-11-24T11:10:11.471Z,67.72
2022-11-24T11:11:11.434Z,68.19
2022-11-24T11:12:42.125Z,67.40
2022-11-24T11:13:11.484Z,66.50
2022-11-24T11:14:11.504Z,66.20
2022-11-24T11:15:11.401Z,67.30
2022-11-24T11:16:11.395Z,68.06
2022-11-24T11:17:11.614Z,65.70
2022-11-24T11:18:11.424Z,65.70
2022-11-24T11:19:33.360Z,65.80
2022-11-24T11:20:11.432Z,67.69
2022-11-24T11:21:11.342Z,67.80
2022-11-24T11:22:11.353Z,66.39
2022-11-24T11:23:11.330Z,66.50
2022-11-24T11:24:11.436Z,66.39
2022-11-24T11:25:11.448Z,67.40
2022-11-24T11:26:11.371Z,65.26
2022-11-24T11:27:11.286Z,64.07
2022-11-24T11:28:16.510Z,65.47
2022-11-24T11:31:16.650Z,64.27
2022-11-24T11:34:18.409Z,63.87
2022-11-24T11:35:12.129Z,66.77
2022-11-24T11:36:11.553Z,64.64
2022-11-24T11:37:11.298Z,64.64
2022-11-24T11:38:11.155Z,66.53
2022-11-24T11:39:11.272Z,65.44
2022-11-24T11:40:11.167Z,65.44
2022-11-24T11:41:11.250Z,65.44
2022-11-24T11:42:25.731Z,64.61
2022-11-24T11:43:11.317Z,65.91
2022-11-24T11:44:11.196Z,66.30
2022-11-24T11:45:11.296Z,65.80
2022-11-24T11:46:11.210Z,65.37
2022-11-24T11:47:11.484Z,65.47
2022-11-24T11:48:11.231Z,66.57
2022-11-24T11:49:11.102Z,66.14
2022-11-24T11:50:11.616Z,64.04
2022-11-24T11:51:26.596Z,64.45
2022-11-24T11:52:11.013Z,64.54
2022-11-24T11:53:11.020Z,62.32
2022-11-24T11:54:11.238Z,62.13
2022-11-24T11:55:10.976Z,62.23
2022-11-24T11:56:10.938Z,62.52
2022-11-24T11:57:10.938Z,62.32
2022-11-24T11:58:10.949Z,62.13
2022-11-24T11:59:10.962Z,61.53
2022-11-24T12:00:11.015Z,61.43
2022-11-24T12:01:11.693Z,60.13
2022-11-24T12:02:10.974Z,59.23
2022-11-24T12:03:11.076Z,59.44
2022-11-24T12:04:10.993Z,59.94
2022-11-24T12:05:10.895Z,61.13
2022-11-24T12:06:10.909Z,58.94
2022-11-24T12:07:10.999Z,60.11
2022-11-24T12:08:14.597Z,60.70
2022-11-24T12:09:26.278Z,59.14
2022-11-24T12:10:10.842Z,59.64
2022-11-24T12:11:10.782Z,59.04
2022-11-24T12:12:15.552Z,59.14
2022-11-24T12:13:10.753Z,59.81
2022-11-24T12:14:10.799Z,58.71
2022-11-24T12:15:11.318Z,58.84
2022-11-24T12:16:11.137Z,59.23
2022-11-24T12:17:10.770Z,59.47
2022-11-24T12:18:33.055Z,60.24
2022-11-24T12:19:10.939Z,60.53
2022-11-24T12:20:10.799Z,59.53
2022-11-24T12:21:10.750Z,59.04
2022-11-24T12:22:10.708Z,61.53
2022-11-24T12:23:10.725Z,60.63
2022-11-24T12:24:11.218Z,58.84
2022-11-24T12:25:10.724Z,59.64
2022-11-24T12:26:10.674Z,59.53
2022-11-24T12:27:10.630Z,59.94
2022-11-24T12:28:10.791Z,60.73
2022-11-24T12:29:10.638Z,61.33
2022-11-24T12:30:10.610Z,61.43
2022-11-24T12:31:10.596Z,61.43
2022-11-24T12:32:10.690Z,62.82
2022-11-24T12:33:10.583Z,62.92
2022-11-24T12:34:10.707Z,62.62
2022-11-24T12:35:10.679Z,63.52
2022-11-24T12:36:10.794Z,62.82
2022-11-24T12:37:10.823Z,62.02
2022-11-24T12:38:10.554Z,61.23
2022-11-24T12:39:10.501Z,62.13
2022-11-24T12:40:10.589Z,62.62
2022-11-24T12:41:40.998Z,63.12
2022-11-24T12:42:10.542Z,62.62
2022-11-24T12:43:10.625Z,62.62
2022-11-24T12:44:10.694Z,62.32
2022-11-24T12:45:10.466Z,61.72
2022-11-24T12:46:16.889Z,62.65
2022-11-24T12:47:10.608Z,62.45
2022-11-24T12:48:10.413Z,62.38
2022-11-24T12:49:10.416Z,62.98
2022-11-24T12:50:10.513Z,63.48
2022-11-24T12:51:10.376Z,62.59
2022-11-24T12:52:10.380Z,62.78
2022-11-24T12:53:10.447Z,63.21
2022-11-24T12:54:10.806Z,63.71
2022-11-24T12:55:10.412Z,63.71
2022-11-24T12:56:10.269Z,63.21